createdAt,value
2023-03-16T03:49:42.638Z,9.65
2023-03-16T03:52:11.596Z,7.70
2023-03-16T03:54:39.523Z,6.47
2023-03-16T03:57:11.797Z,7.80
2023-03-16T03:59:43.879Z,5.80
2023-03-16T04:02:40.945Z,5.68
2023-03-16T04:05:16.273Z,4.70
2023-03-16T04:07:44.082Z,5.45
2023-03-16T04:10:14.635Z,5.10
2023-03-16T04:12:44.118Z,4.60
2023-03-16T04:15:14.543Z,4.50
2023-03-16T04:18:05.756Z,4.25
2023-03-16T04:20:33.664Z,4.40
2023-03-16T04:23:01.632Z,4.07
2023-03-16T04:25:30.979Z,3.92
2023-03-16T04:28:00.033Z,4.45
2023-03-16T04:30:31.151Z,4.00
2023-03-16T04:33:10.909Z,3.60
2023-03-16T04:35:38.820Z,3.70
2023-03-16T04:38:06.637Z,6.28
2023-03-16T04:40:41.715Z,3.45
2023-03-16T04:43:15.173Z,2.60
2023-03-16T04:45:45.043Z,5.30
2023-03-16T04:48:13.094Z,6.55
2023-03-16T04:50:41.165Z,6.80
2023-03-16T04:53:09.069Z,6.78
2023-03-16T04:55:37.022Z,4.72
2023-03-16T04:58:05.634Z,5.80
2023-03-16T05:00:36.827Z,3.70
2023-03-16T05:03:14.573Z,7.80
2023-03-16T05:05:42.810Z,6.47
2023-03-16T05:08:12.317Z,4.18
2023-03-16T05:10:43.026Z,4.45
2023-03-16T05:13:10.816Z,2.50
2023-03-16T05:15:39.457Z,2.72
2023-03-16T05:18:18.033Z,2.53
2023-03-16T05:20:46.157Z,3.85
2023-03-16T05:23:14.591Z,2.90
2023-03-16T05:28:16.955Z,3.35
2023-03-16T05:31:05.088Z,1.77
2023-03-16T05:33:39.334Z,3.08
2023-03-16T05:36:14.441Z,4.88
2023-03-16T05:38:45.771Z,1.90
2023-03-16T05:41:21.725Z,2.47
2023-03-16T05:43:55.219Z,3.38
2023-03-16T05:46:26.771Z,2.20
2023-03-16T05:48:54.679Z,2.30
2023-03-16T05:51:22.911Z,3.13
2023-03-16T05:53:50.633Z,1.67
2023-03-16T05:56:29.134Z,2.25
2023-03-16T05:58:57.399Z,2.03
2023-03-16T06:01:26.594Z,1.23
2023-03-16T06:03:55.064Z,2.50
2023-03-16T06:06:26.384Z,1.33
2023-03-16T06:09:10.080Z,2.45
2023-03-16T06:11:38.053Z,1.85
2023-03-16T06:14:05.906Z,2.72
2023-03-16T06:16:33.828Z,2.17
2023-03-16T06:19:01.892Z,1.75
2023-03-16T06:21:31.592Z,1.77
2023-03-16T06:24:07.927Z,1.38
2023-03-16T06:26:37.045Z,3.88
2023-03-16T06:29:07.524Z,3.00
2023-03-16T06:31:37.549Z,1.27
2023-03-16T06:34:06.397Z,2.25
2023-03-16T06:36:34.470Z,1.95
2023-03-16T06:39:04.665Z,1.60
2023-03-16T06:41:37.008Z,1.95
2023-03-16T06:44:06.449Z,3.53
2023-03-16T06:46:38.112Z,1.52
2023-03-16T06:49:06.185Z,1.35
2023-03-16T06:51:33.914Z,1.10
2023-03-16T06:54:01.775Z,1.58
2023-03-16T06:56:31.891Z,2.58
2023-03-16T06:58:59.729Z,1.33
2023-03-16T07:01:27.626Z,1.20
2023-03-16T07:03:55.488Z,2.25
2023-03-16T07:06:28.421Z,2.15
2023-03-16T07:08:56.163Z,1.13
2023-03-16T07:11:25.500Z,2.92
2023-03-16T07:13:53.188Z,1.50
2023-03-16T07:16:22.544Z,1.27
2023-03-16T07:18:50.598Z,1.25
2023-03-16T07:21:20.682Z,0.88
2023-03-16T07:23:49.513Z,1.30
2023-03-16T07:26:22.177Z,1.25
2023-03-16T07:28:57.591Z,2.20
2023-03-16T07:31:26.395Z,3.15
2023-03-16T07:33:57.588Z,1.73
2023-03-16T07:36:40.133Z,1.85
2023-03-16T07:39:07.948Z,1.65
2023-03-16T07:41:36.379Z,1.50
2023-03-16T07:44:31.530Z,2.00
2023-03-16T07:46:59.610Z,1.13
2023-03-16T07:49:30.258Z,1.55
2023-03-16T07:51:59.766Z,1.35
2023-03-16T07:54:35.962Z,0.98
2023-03-16T07:57:06.594Z,1.02
2023-03-16T07:59:40.546Z,1.30
2023-03-16T08:02:15.210Z,1.60
2023-03-16T08:04:44.772Z,1.63
2023-03-16T08:07:15.707Z,1.05
2023-03-16T08:09:58.624Z,1.00
2023-03-16T08:12:38.176Z,1.23
2023-03-16T08:15:06.758Z,1.17
2023-03-16T08:17:35.691Z,1.23
2023-03-16T08:20:12.996Z,0.90
2023-03-16T08:22:46.692Z,1.23
2023-03-16T08:25:20.012Z,0.65
2023-03-16T08:28:00.918Z,1.42
2023-03-16T08:30:31.281Z,1.00
2023-03-16T08:33:26.196Z,1.30
2023-03-16T08:35:54.276Z,1.50
2023-03-16T08:38:22.142Z,1.35
2023-03-16T08:40:52.333Z,0.95
2023-03-16T08:43:22.629Z,0.85
2023-03-16T08:45:51.048Z,1.13
2023-03-16T08:48:22.411Z,1.27
2023-03-16T08:50:52.205Z,1.73
2023-03-16T08:53:21.197Z,1.55
2023-03-16T08:55:48.929Z,1.00
2023-03-16T08:58:16.680Z,1.27
2023-03-16T09:00:46.828Z,1.25
2023-03-16T09:03:15.662Z,1.05
2023-03-16T09:05:43.361Z,1.10
2023-03-16T09:08:11.198Z,1.42
2023-03-16T09:10:38.856Z,1.20
2023-03-16T09:13:06.687Z,1.10
2023-03-16T09:15:35.699Z,1.35
2023-03-16T09:18:04.384Z,0.90
2023-03-16T09:20:33.270Z,1.42
2023-03-16T09:23:01.275Z,1.42
2023-03-16T09:25:29.316Z,1.00
2023-03-16T09:27:57.199Z,1.25
2023-03-16T09:30:25.189Z,2.40
2023-03-16T09:32:53.066Z,1.00
2023-03-16T09:35:21.029Z,1.35
2023-03-16T09:38:05.056Z,1.67
2023-03-16T09:40:36.255Z,1.10
2023-03-16T09:43:22.628Z,1.42
2023-03-16T09:46:12.227Z,1.73
2023-03-16T09:48:41.263Z,0.98
2023-03-16T09:51:21.298Z,1.38
2023-03-16T09:53:50.745Z,1.75
2023-03-16T09:56:26.654Z,1.65
2023-03-16T09:58:55.557Z,1.63
2023-03-16T10:01:48.486Z,1.83
2023-03-16T10:04:34.760Z,0.70
2023-03-16T10:07:30.458Z,1.38
2023-03-16T10:10:02.945Z,1.25
2023-03-16T10:12:34.446Z,0.80
2023-03-16T10:15:06.853Z,1.27
2023-03-16T10:20:28.347Z,1.27
2023-03-16T10:22:59.554Z,1.55
2023-03-16T10:25:39.692Z,1.17
2023-03-16T10:28:07.602Z,0.95
2023-03-16T10:30:37.600Z,0.95
2023-03-16T10:33:26.822Z,1.30
2023-03-16T10:36:03.991Z,1.48
2023-03-16T10:38:40.398Z,1.30
2023-03-16T10:41:23.159Z,1.52
2023-03-16T10:43:55.722Z,1.45
2023-03-16T10:46:25.985Z,0.85
2023-03-16T10:49:02.027Z,1.38
2023-03-16T10:51:32.195Z,1.45
2023-03-16T10:54:23.556Z,1.55
2023-03-16T10:56:51.295Z,0.70
2023-03-16T10:59:34.349Z,1.33
2023-03-16T11:02:20.994Z,1.10
2023-03-16T11:04:49.704Z,1.15
2023-03-16T11:07:19.185Z,1.77
2023-03-16T11:09:47.949Z,2.65
2023-03-16T11:12:24.302Z,1.70
2023-03-16T11:14:52.443Z,1.55
2023-03-16T11:17:40.214Z,1.63
2023-03-16T11:20:17.806Z,1.33
2023-03-16T11:22:47.317Z,1.90
2023-03-16T11:25:38.033Z,2.00
2023-03-16T11:28:24.640Z,2.10
2023-03-16T11:31:16.944Z,1.83
2023-03-16T11:33:44.632Z,1.38
2023-03-16T11:36:31.092Z,1.20
2023-03-16T11:39:07.937Z,1.48
2023-03-16T11:41:53.645Z,1.63
2023-03-16T11:44:39.487Z,1.90
2023-03-16T11:47:44.789Z,2.22
2023-03-16T11:50:18.582Z,1.92
2023-03-16T11:53:12.379Z,1.33
2023-03-16T11:55:49.298Z,2.65
2023-03-16T11:58:29.282Z,1.13
2023-03-16T12:01:14.523Z,2.03
2023-03-16T12:03:55.343Z,1.50
2023-03-16T12:06:28.404Z,1.42
2023-03-16T12:09:15.730Z,2.03
2023-03-16T12:12:00.706Z,1.55
2023-03-16T12:14:43.362Z,1.23
2023-03-16T12:17:16.020Z,1.45
2023-03-16T12:19:53.949Z,2.03
2023-03-16T12:22:28.563Z,1.83
2023-03-16T12:24:56.508Z,2.72
2023-03-16T12:27:33.784Z,1.48
2023-03-16T12:30:04.543Z,2.53
2023-03-16T12:32:45.380Z,1.65
2023-03-16T12:35:28.804Z,1.60
2023-03-16T12:38:15.256Z,1.90
2023-03-16T12:41:12.176Z,2.00
2023-03-16T12:43:46.639Z,2.45
2023-03-16T12:46:18.823Z,1.73
2023-03-16T12:48:49.350Z,2.25
2023-03-16T12:51:17.547Z,1.45
2023-03-16T12:53:56.301Z,1.52
2023-03-16T12:56:32.946Z,3.00
2023-03-16T12:59:03.329Z,2.10
2023-03-16T13:01:38.440Z,2.13
2023-03-16T13:04:09.593Z,2.17
2023-03-16T13:06:37.796Z,2.00
2023-03-16T13:09:07.464Z,2.72
2023-03-16T13:11:45.893Z,1.88
2023-03-16T13:14:33.991Z,2.25
2023-03-16T13:17:17.931Z,1.95
2023-03-16T13:19:48.188Z,3.38
2023-03-16T13:22:32.496Z,2.42
2023-03-16T13:25:38.163Z,2.33
2023-03-16T13:28:06.785Z,3.25
2023-03-16T13:30:34.936Z,3.40
2023-03-16T13:33:26.698Z,2.63
2023-03-16T13:35:57.876Z,2.40
2023-03-16T13:38:30.585Z,2.47
2023-03-16T13:41:04.089Z,2.45
2023-03-16T13:43:34.902Z,3.13
2023-03-16T13:46:13.344Z,3.40
2023-03-16T13:48:41.963Z,3.83
2023-03-16T13:51:21.043Z,2.28
2023-03-16T13:53:50.452Z,3.00
2023-03-16T13:56:29.001Z,3.42
2023-03-16T13:58:58.040Z,3.72
2023-03-16T14:01:32.468Z,2.95
2023-03-16T14:04:08.869Z,3.35
2023-03-16T14:06:36.922Z,3.65
2023-03-16T14:09:06.608Z,4.25
2023-03-16T14:11:34.976Z,3.67
2023-03-16T14:14:14.826Z,2.53
2023-03-16T14:16:43.109Z,3.53
2023-03-16T14:19:19.390Z,3.97
2023-03-16T14:21:47.368Z,3.15
2023-03-16T14:24:33.982Z,2.80
2023-03-16T14:27:17.252Z,2.38
2023-03-16T14:29:46.062Z,2.92
2023-03-16T14:32:28.306Z,2.88
2023-03-16T14:35:22.986Z,3.05
2023-03-16T14:37:51.715Z,3.53
2023-03-16T14:40:26.141Z,3.83
2023-03-16T14:42:55.912Z,3.22
2023-03-16T14:45:24.005Z,3.38
2023-03-16T14:47:53.757Z,3.35
2023-03-16T14:50:25.679Z,4.00
2023-03-16T14:52:55.967Z,3.00
2023-03-16T14:55:25.040Z,3.33
2023-03-16T14:57:53.513Z,4.93
2023-03-16T15:00:22.321Z,4.18
2023-03-16T15:02:58.602Z,4.13
2023-03-16T15:05:47.976Z,4.85
2023-03-16T15:08:28.818Z,3.72
2023-03-16T15:10:59.150Z,3.85
2023-03-16T15:13:53.454Z,3.40
2023-03-16T15:16:23.252Z,2.65
2023-03-16T15:18:52.117Z,3.72
2023-03-16T15:21:26.576Z,3.40
2023-03-16T15:23:54.487Z,5.70
2023-03-16T15:26:27.388Z,5.43
2023-03-16T15:28:56.091Z,7.07
2023-03-16T15:31:24.265Z,35.35
2023-03-16T15:33:52.108Z,39.65
2023-03-16T15:36:22.436Z,37.08
2023-03-16T15:38:53.566Z,38.85
2023-03-16T15:41:21.583Z,38.65
2023-03-16T15:43:49.246Z,31.02
2023-03-16T15:46:17.041Z,30.88
2023-03-16T15:48:44.854Z,31.58
2023-03-16T15:51:31.179Z,33.63
2023-03-16T15:54:04.429Z,28.15
2023-03-16T15:56:50.993Z,26.70
2023-03-16T15:59:22.363Z,27.00
2023-03-16T16:01:50.753Z,24.85
2023-03-16T16:04:21.823Z,21.65
2023-03-16T16:06:50.996Z,22.50
2023-03-16T16:09:18.961Z,25.10
2023-03-16T16:11:48.673Z,23.45
2023-03-16T16:14:18.375Z,22.63
2023-03-16T16:16:46.335Z,23.38
2023-03-16T16:19:15.781Z,19.85
2023-03-16T16:21:44.134Z,16.58
2023-03-16T16:24:11.995Z,18.98
2023-03-16T16:26:49.916Z,21.45
2023-03-16T16:29:22.582Z,17.63
2023-03-16T16:31:51.984Z,19.00
2023-03-16T16:34:21.800Z,19.48
2023-03-16T16:36:49.865Z,18.27
2023-03-16T16:39:17.647Z,19.73
2023-03-16T16:41:46.151Z,18.73
2023-03-16T16:44:34.332Z,16.17
2023-03-16T16:47:03.768Z,15.70
2023-03-16T16:49:32.521Z,15.45
2023-03-16T16:52:00.390Z,15.23
2023-03-16T16:54:30.142Z,16.85
2023-03-16T16:56:59.057Z,19.52
2023-03-16T16:59:29.964Z,15.45
2023-03-16T17:01:58.000Z,16.77
2023-03-16T17:04:27.515Z,14.35
2023-03-16T17:07:02.256Z,14.68
2023-03-16T17:09:30.840Z,14.00
2023-03-16T17:11:59.677Z,16.02
2023-03-16T17:14:31.547Z,13.73
2023-03-16T17:17:05.330Z,12.15
2023-03-16T17:19:33.160Z,13.40
2023-03-16T17:22:01.765Z,13.40
2023-03-16T17:24:31.636Z,14.30
2023-03-16T17:27:01.727Z,13.00
2023-03-16T17:29:34.306Z,12.30
2023-03-16T17:32:04.300Z,15.40
2023-03-16T17:34:33.456Z,14.98
2023-03-16T17:37:02.143Z,11.73
2023-03-16T17:39:32.280Z,11.05
2023-03-16T17:42:16.065Z,11.00
2023-03-16T17:44:46.694Z,12.07
2023-03-16T17:47:22.036Z,15.07
2023-03-16T17:49:50.968Z,11.68
2023-03-16T17:52:21.133Z,12.35
2023-03-16T17:54:50.164Z,13.15
2023-03-16T17:57:38.322Z,14.10
2023-03-16T18:00:21.585Z,10.82
2023-03-16T18:03:13.161Z,11.00
2023-03-16T18:05:41.355Z,12.07
2023-03-16T18:08:28.265Z,12.00
2023-03-16T18:11:08.245Z,10.00
2023-03-16T18:13:38.134Z,9.10
2023-03-16T18:16:07.018Z,11.13
2023-03-16T18:18:38.318Z,10.25
2023-03-16T18:21:07.121Z,9.45
2023-03-16T18:23:36.554Z,11.43
2023-03-16T18:26:07.360Z,16.27
2023-03-16T18:28:36.725Z,14.82
2023-03-16T18:31:06.378Z,13.65
2023-03-16T18:33:36.624Z,12.07
2023-03-16T18:36:15.864Z,17.08
2023-03-16T18:38:45.604Z,14.55
2023-03-16T18:41:16.063Z,20.92
2023-03-16T18:43:44.146Z,13.98
2023-03-16T18:46:36.061Z,13.35
2023-03-16T18:51:46.191Z,12.80
2023-03-16T18:54:21.332Z,12.10
2023-03-16T18:56:49.956Z,13.60
2023-03-16T18:59:18.078Z,13.73
2023-03-16T19:01:47.172Z,12.48
2023-03-16T19:04:27.197Z,12.70
2023-03-16T19:06:57.400Z,10.70
2023-03-16T19:12:01.717Z,13.80
2023-03-16T19:14:35.510Z,11.45
2023-03-16T19:17:06.050Z,11.60
2023-03-16T19:19:36.793Z,11.68
2023-03-16T19:22:14.288Z,11.57
2023-03-16T19:24:53.665Z,11.20
2023-03-16T19:27:25.727Z,10.35
2023-03-16T19:29:53.999Z,11.45
